createdAt,value
2018-05-17T00:00:56.369Z,14.63
2018-05-17T00:02:03.253Z,14.64
2018-05-17T00:03:09.508Z,14.63
2018-05-17T00:04:15.833Z,14.61
2018-05-17T00:05:22.337Z,14.54
2018-05-17T00:06:28.584Z,14.55
2018-05-17T00:07:34.853Z,14.54
2018-05-17T00:08:41.187Z,14.53
2018-05-17T00:09:48.260Z,14.48
2018-05-17T00:10:58.984Z,14.53
2018-05-17T00:12:05.228Z,14.45
2018-05-17T00:13:11.204Z,14.31
2018-05-17T00:14:17.642Z,14.33
2018-05-17T00:15:24.095Z,14.42
2018-05-17T00:16:30.512Z,14.42
2018-05-17T00:17:36.786Z,14.42
2018-05-17T00:18:43.161Z,14.41
2018-05-17T00:19:49.416Z,14.46
2018-05-17T00:20:57.063Z,14.41
2018-05-17T00:22:03.520Z,14.39
2018-05-17T00:23:09.820Z,14.42
2018-05-17T00:24:15.810Z,14.33
2018-05-17T00:25:22.085Z,14.38
2018-05-17T00:26:28.441Z,14.40
2018-05-17T00:27:35.532Z,14.45
2018-05-17T00:28:41.855Z,14.48
2018-05-17T00:29:48.161Z,14.46
2018-05-17T00:30:54.508Z,14.45
2018-05-17T00:32:00.823Z,14.46
2018-05-17T00:33:07.131Z,14.48
2018-05-17T00:34:13.413Z,14.48
2018-05-17T00:35:19.788Z,14.48
2018-05-17T00:36:26.852Z,14.47
2018-05-17T00:37:34.414Z,14.47
2018-05-17T00:38:40.702Z,14.44
2018-05-17T00:39:47.024Z,14.55
2018-05-17T00:40:53.377Z,14.51
2018-05-17T00:41:59.657Z,14.50
2018-05-17T00:43:05.969Z,14.50
2018-05-17T00:44:12.381Z,14.52
2018-05-17T00:45:19.649Z,14.50
2018-05-17T00:46:25.937Z,14.52
2018-05-17T00:47:32.260Z,14.53
2018-05-17T00:48:38.537Z,14.53
2018-05-17T00:49:45.505Z,14.53
2018-05-17T00:50:51.907Z,14.53
2018-05-17T00:51:58.727Z,14.49
2018-05-17T00:53:16.101Z,14.53
2018-05-17T00:54:22.185Z,14.53
2018-05-17T00:55:28.468Z,14.59
2018-05-17T00:56:34.782Z,14.60
2018-05-17T00:57:41.759Z,14.60
2018-05-17T00:58:49.645Z,14.61
2018-05-17T00:59:55.962Z,14.63
2018-05-17T01:01:02.280Z,14.62
2018-05-17T01:02:08.849Z,14.67
2018-05-17T01:03:15.235Z,14.70
2018-05-17T01:04:21.596Z,14.71
2018-05-17T01:05:27.734Z,14.68
2018-05-17T01:06:34.049Z,14.65
2018-05-17T01:07:41.476Z,14.64
2018-05-17T01:08:47.728Z,14.63
2018-05-17T01:09:55.581Z,14.63
2018-05-17T01:11:01.849Z,14.69
2018-05-17T01:12:14.982Z,14.68
2018-05-17T01:13:22.649Z,14.70
2018-05-17T01:14:28.877Z,14.71
2018-05-17T01:15:35.438Z,14.73
2018-05-17T01:16:42.057Z,14.72
2018-05-17T01:17:48.449Z,14.72
2018-05-17T01:18:54.753Z,14.62
2018-05-17T01:20:01.065Z,14.61
2018-05-17T01:21:07.411Z,14.64
2018-05-17T01:22:13.613Z,14.65
2018-05-17T01:23:19.880Z,14.69
2018-05-17T01:24:26.232Z,14.70
2018-05-17T01:25:32.519Z,14.64
2018-05-17T01:26:38.481Z,14.61
2018-05-17T01:27:44.760Z,14.62
2018-05-17T01:28:51.172Z,14.59
2018-05-17T01:29:57.456Z,14.61
2018-05-17T01:31:03.801Z,14.60
2018-05-17T01:32:10.079Z,14.54
2018-05-17T01:33:16.420Z,14.58
2018-05-17T01:34:22.708Z,14.57
2018-05-17T01:35:30.333Z,14.64
2018-05-17T01:36:49.577Z,14.61
2018-05-17T01:38:07.690Z,14.66
2018-05-17T01:39:13.733Z,14.59
2018-05-17T01:40:19.678Z,14.62
2018-05-17T01:41:25.753Z,14.57
2018-05-17T01:42:32.094Z,14.61
2018-05-17T01:43:38.373Z,14.58
2018-05-17T01:44:44.664Z,14.55
2018-05-17T01:45:50.992Z,14.57
2018-05-17T01:46:57.334Z,14.53
2018-05-17T01:48:03.340Z,14.51
2018-05-17T01:49:10.105Z,14.56
2018-05-17T01:50:16.964Z,14.60
2018-05-17T01:51:23.312Z,14.55
2018-05-17T01:52:29.361Z,14.61
2018-05-17T01:53:35.732Z,14.52
2018-05-17T01:54:42.024Z,14.52
2018-05-17T01:55:48.311Z,14.47
2018-05-17T01:56:54.613Z,14.39
2018-05-17T01:58:01.599Z,14.43
2018-05-17T01:59:07.857Z,14.38
2018-05-17T02:00:14.161Z,14.40
2018-05-17T02:01:20.493Z,14.37
2018-05-17T02:02:27.716Z,14.36
2018-05-17T02:03:34.063Z,14.34
2018-05-17T02:04:40.356Z,14.35
2018-05-17T02:05:47.273Z,14.38
2018-05-17T02:06:53.568Z,14.27
2018-05-17T02:07:59.880Z,14.26
2018-05-17T02:09:05.222Z,14.27
2018-05-17T02:10:11.491Z,14.26
2018-05-17T02:11:17.822Z,14.21
2018-05-17T02:12:24.118Z,14.28
2018-05-17T02:13:30.452Z,14.25
2018-05-17T02:14:37.445Z,14.23
2018-05-17T02:15:43.636Z,14.24
2018-05-17T02:16:50.021Z,14.22
2018-05-17T02:17:56.300Z,14.18
2018-05-17T02:19:02.635Z,14.10
2018-05-17T02:20:08.921Z,14.07
2018-05-17T02:21:15.251Z,14.06
2018-05-17T02:22:21.556Z,14.01
2018-05-17T02:23:27.877Z,14.00
2018-05-17T02:24:35.065Z,13.94
2018-05-17T02:25:41.427Z,13.92
2018-05-17T02:26:47.705Z,13.97
2018-05-17T02:27:54.601Z,13.94
2018-05-17T02:29:00.966Z,13.93
2018-05-17T02:30:07.252Z,13.98
2018-05-17T02:31:13.678Z,14.00
2018-05-17T02:32:20.609Z,14.04
2018-05-17T02:33:28.090Z,14.02
2018-05-17T02:34:34.473Z,13.91
2018-05-17T02:35:40.548Z,13.82
2018-05-17T02:36:47.521Z,13.85
2018-05-17T02:37:53.801Z,13.91
2018-05-17T02:38:59.826Z,13.89
2018-05-17T02:40:06.255Z,13.90
2018-05-17T02:41:13.201Z,13.78
2018-05-17T02:42:20.122Z,13.78
2018-05-17T02:43:26.479Z,13.82
2018-05-17T02:44:35.180Z,13.83
2018-05-17T02:45:41.472Z,13.82
2018-05-17T02:46:47.805Z,13.72
2018-05-17T02:47:54.092Z,13.71
2018-05-17T02:49:00.442Z,13.77
2018-05-17T02:50:06.679Z,13.80
2018-05-17T02:51:13.192Z,13.76
2018-05-17T02:52:19.442Z,13.68
2018-05-17T02:53:25.741Z,13.66
2018-05-17T02:54:32.088Z,13.51
2018-05-17T02:55:38.386Z,13.53
2018-05-17T02:56:45.301Z,13.61
2018-05-17T02:57:52.898Z,13.59
2018-05-17T02:58:59.148Z,13.61
2018-05-17T03:00:05.621Z,13.62
2018-05-17T03:01:11.529Z,13.60
2018-05-17T03:02:17.542Z,13.57
2018-05-17T03:03:23.896Z,13.50
2018-05-17T03:04:30.217Z,13.50
2018-05-17T03:05:36.489Z,13.50
2018-05-17T03:06:42.852Z,13.45
2018-05-17T03:07:49.133Z,13.37
2018-05-17T03:08:55.445Z,13.36
2018-05-17T03:10:01.757Z,13.33
2018-05-17T03:11:08.050Z,13.30
2018-05-17T03:12:14.067Z,13.28
2018-05-17T03:13:21.195Z,13.23
2018-05-17T03:14:27.272Z,13.25
2018-05-17T03:15:33.522Z,13.20
2018-05-17T03:16:39.511Z,13.25
2018-05-17T03:17:46.649Z,13.20
2018-05-17T03:18:53.089Z,13.26
2018-05-17T03:19:59.343Z,13.26
2018-05-17T03:21:05.673Z,13.29
2018-05-17T03:22:12.602Z,13.31
2018-05-17T03:23:18.904Z,13.31
2018-05-17T03:24:25.253Z,13.32
2018-05-17T03:25:31.252Z,13.35
2018-05-17T03:26:37.549Z,13.36
2018-05-17T03:27:43.301Z,13.26
2018-05-17T03:28:49.754Z,13.24
2018-05-17T03:29:56.386Z,13.17
2018-05-17T03:31:02.793Z,13.15
2018-05-17T03:32:09.105Z,13.18
2018-05-17T03:33:15.370Z,13.17
2018-05-17T03:34:21.663Z,13.19
2018-05-17T03:35:27.950Z,13.18
2018-05-17T03:36:34.228Z,13.19
2018-05-17T03:37:41.319Z,13.02
2018-05-17T03:38:47.605Z,13.09
2018-05-17T03:39:54.524Z,13.09
2018-05-17T03:41:00.916Z,13.08
2018-05-17T03:42:07.259Z,13.00
2018-05-17T03:43:13.578Z,13.00
2018-05-17T03:44:19.998Z,13.00
2018-05-17T03:45:26.296Z,13.02
2018-05-17T03:46:32.520Z,13.04
2018-05-17T03:47:38.830Z,13.00
2018-05-17T03:48:45.924Z,13.02
2018-05-17T03:49:52.369Z,13.08
2018-05-17T03:50:58.421Z,13.01
2018-05-17T03:52:04.193Z,13.00
2018-05-17T03:53:10.561Z,12.98
2018-05-17T03:54:16.888Z,12.89
2018-05-17T03:55:24.327Z,12.96
2018-05-17T03:56:30.648Z,12.97
2018-05-17T03:57:36.953Z,13.02
2018-05-17T03:58:43.288Z,12.96
2018-05-17T03:59:49.593Z,12.99
2018-05-17T04:01:07.874Z,12.94
2018-05-17T04:02:24.820Z,12.99
2018-05-17T04:03:41.941Z,12.95
2018-05-17T04:04:58.942Z,12.93
2018-05-17T04:06:15.979Z,12.95
2018-05-17T04:07:22.118Z,12.91
2018-05-17T04:08:28.121Z,12.94
2018-05-17T04:09:34.390Z,12.89
2018-05-17T04:10:40.451Z,12.76
2018-05-17T04:11:46.705Z,12.72
2018-05-17T04:12:53.242Z,12.81
2018-05-17T04:13:59.600Z,12.85
2018-05-17T04:15:05.504Z,12.91
2018-05-17T04:16:11.768Z,12.82
2018-05-17T04:17:18.100Z,12.83
2018-05-17T04:18:24.548Z,12.88
2018-05-17T04:19:30.948Z,12.85
2018-05-17T04:20:37.242Z,12.88
2018-05-17T04:21:43.560Z,12.89
2018-05-17T04:22:49.873Z,12.96
2018-05-17T04:23:56.651Z,12.99
2018-05-17T04:25:03.928Z,12.87
2018-05-17T04:26:10.752Z,12.87
2018-05-17T04:27:17.062Z,12.78
2018-05-17T04:28:23.368Z,12.80
2018-05-17T04:29:29.684Z,12.85
2018-05-17T04:30:35.976Z,12.87
2018-05-17T04:31:42.312Z,12.84
2018-05-17T04:32:48.581Z,12.90
2018-05-17T04:33:54.928Z,12.85
2018-05-17T04:35:01.218Z,12.80
2018-05-17T04:36:08.229Z,12.82
2018-05-17T04:37:14.546Z,12.88
2018-05-17T04:38:21.554Z,12.87
2018-05-17T04:39:37.406Z,12.86
2018-05-17T04:40:44.020Z,12.79
2018-05-17T04:41:50.208Z,12.84
2018-05-17T04:42:58.524Z,12.80
2018-05-17T04:44:04.769Z,12.83
2018-05-17T04:45:11.150Z,12.84
2018-05-17T04:46:18.307Z,12.88
2018-05-17T04:47:24.561Z,12.84
2018-05-17T04:48:30.907Z,12.81
2018-05-17T04:49:37.281Z,12.79
2018-05-17T04:50:43.828Z,12.82
2018-05-17T04:51:50.085Z,12.83
2018-05-17T04:52:56.109Z,12.85
2018-05-17T04:54:02.425Z,12.86
2018-05-17T04:55:08.774Z,12.82
2018-05-17T04:56:16.517Z,12.89
2018-05-17T04:57:22.938Z,12.91
2018-05-17T04:58:29.240Z,12.90
2018-05-17T04:59:35.551Z,12.85
2018-05-17T05:00:41.862Z,12.83
2018-05-17T05:01:48.174Z,12.84
2018-05-17T05:02:54.628Z,12.90
2018-05-17T05:04:02.777Z,12.97
2018-05-17T05:05:09.213Z,12.99
2018-05-17T05:06:15.679Z,13.08
2018-05-17T05:07:21.666Z,13.05
2018-05-17T05:08:27.951Z,12.96
2018-05-17T05:09:34.275Z,12.92
2018-05-17T05:10:41.899Z,12.87
2018-05-17T05:11:50.389Z,12.86
2018-05-17T05:12:56.934Z,12.84
2018-05-17T05:14:04.667Z,12.78
2018-05-17T05:15:11.572Z,12.79
2018-05-17T05:16:18.687Z,12.74
2018-05-17T05:17:25.474Z,12.79
2018-05-17T05:18:32.272Z,12.85
2018-05-17T05:19:38.791Z,12.74
2018-05-17T05:20:45.517Z,12.68
2018-05-17T05:21:51.818Z,12.61
2018-05-17T05:22:58.112Z,12.62
2018-05-17T05:24:04.813Z,12.65
2018-05-17T05:25:11.153Z,12.70
2018-05-17T05:26:17.678Z,12.75
2018-05-17T05:27:24.770Z,12.68
2018-05-17T05:28:31.618Z,12.72
2018-05-17T05:29:37.924Z,12.66
2018-05-17T05:30:44.909Z,12.64
2018-05-17T05:31:51.206Z,12.54
2018-05-17T05:32:57.442Z,12.56
2018-05-17T05:34:03.788Z,12.59
2018-05-17T05:35:11.263Z,12.54
2018-05-17T05:36:17.553Z,12.54
2018-05-17T05:37:23.974Z,12.59
2018-05-17T05:38:30.287Z,12.66
2018-05-17T05:39:36.553Z,12.65
2018-05-17T05:40:42.888Z,12.69
2018-05-17T05:41:49.200Z,12.61
2018-05-17T05:42:55.958Z,12.60
2018-05-17T05:44:02.202Z,12.63
2018-05-17T05:45:08.464Z,12.68
2018-05-17T05:46:14.769Z,12.72
2018-05-17T05:47:20.986Z,12.73
2018-05-17T05:48:27.302Z,12.78
2018-05-17T05:49:33.583Z,12.65
2018-05-17T05:50:39.897Z,12.60
2018-05-17T05:51:46.212Z,12.64
2018-05-17T05:52:53.340Z,12.67
2018-05-17T05:53:59.882Z,12.73
2018-05-17T05:55:06.245Z,12.75
2018-05-17T05:56:12.596Z,12.75
2018-05-17T05:57:18.900Z,12.73
2018-05-17T05:58:25.206Z,12.69
2018-05-17T05:59:32.115Z,12.71
2018-05-17T06:00:38.425Z,12.68
2018-05-17T06:01:44.768Z,12.63
2018-05-17T06:02:51.053Z,12.67
2018-05-17T06:03:57.529Z,12.61
2018-05-17T06:05:03.745Z,12.72
2018-05-17T06:06:10.604Z,12.66
2018-05-17T06:07:16.924Z,12.63
2018-05-17T06:08:23.307Z,12.57
2018-05-17T06:09:29.821Z,12.45
2018-05-17T06:10:36.053Z,12.56
2018-05-17T06:11:42.405Z,12.55
2018-05-17T06:12:48.712Z,12.66
2018-05-17T06:13:55.198Z,12.71
2018-05-17T06:15:01.546Z,12.61
2018-05-17T06:16:08.091Z,12.57
2018-05-17T06:17:14.354Z,12.67
2018-05-17T06:18:20.677Z,12.64
2018-05-17T06:19:27.014Z,12.62
2018-05-17T06:20:33.247Z,12.58
2018-05-17T06:21:41.012Z,12.47
2018-05-17T06:22:48.688Z,12.47
2018-05-17T06:23:54.988Z,12.42
2018-05-17T06:25:01.269Z,12.39
2018-05-17T06:26:07.606Z,12.47
2018-05-17T06:27:14.668Z,12.48
2018-05-17T06:28:20.898Z,12.46
2018-05-17T06:29:27.271Z,12.44
2018-05-17T06:30:34.897Z,12.47
2018-05-17T06:31:41.212Z,12.42
2018-05-17T06:32:47.533Z,12.45
2018-05-17T06:33:53.826Z,12.37
2018-05-17T06:35:01.049Z,12.43
2018-05-17T06:36:07.265Z,12.27
2018-05-17T06:37:13.603Z,12.29
2018-05-17T06:38:19.922Z,12.27
2018-05-17T06:39:25.887Z,12.36
2018-05-17T06:40:32.300Z,12.50
2018-05-17T06:41:38.644Z,12.55
2018-05-17T06:42:44.928Z,12.47
2018-05-17T06:43:51.256Z,12.48
2018-05-17T06:44:57.850Z,12.52
2018-05-17T06:46:03.492Z,12.57
2018-05-17T06:47:09.807Z,12.57
2018-05-17T06:48:16.101Z,12.50
2018-05-17T06:49:22.405Z,12.57
2018-05-17T06:50:29.904Z,12.54
2018-05-17T06:51:36.777Z,12.53
2018-05-17T06:52:43.116Z,12.56
2018-05-17T06:53:49.368Z,12.51
2018-05-17T06:54:55.680Z,12.44
2018-05-17T06:56:02.014Z,12.39
2018-05-17T06:57:08.924Z,12.39
2018-05-17T06:58:15.235Z,12.43
2018-05-17T06:59:21.530Z,12.46
2018-05-17T07:00:27.818Z,12.44
2018-05-17T07:01:34.272Z,12.47
2018-05-17T07:02:41.240Z,12.49
2018-05-17T07:03:47.681Z,12.47
2018-05-17T07:04:54.069Z,12.51
2018-05-17T07:06:01.188Z,12.56
2018-05-17T07:07:08.321Z,12.62
2018-05-17T07:08:14.317Z,12.59
2018-05-17T07:09:22.825Z,12.55
2018-05-17T07:10:36.097Z,12.38
2018-05-17T07:11:42.374Z,12.44
2018-05-17T07:12:48.670Z,12.47
2018-05-17T07:13:54.978Z,12.43
2018-05-17T07:15:01.257Z,12.41
2018-05-17T07:16:07.574Z,12.44
2018-05-17T07:17:13.938Z,12.49
2018-05-17T07:18:20.525Z,12.52
2018-05-17T07:19:27.565Z,12.53
2018-05-17T07:20:33.971Z,12.42
2018-05-17T07:21:40.663Z,12.40
2018-05-17T07:22:47.493Z,12.41
2018-05-17T07:23:53.735Z,12.40
2018-05-17T07:25:00.030Z,12.42
2018-05-17T07:26:06.319Z,12.32
2018-05-17T07:27:12.536Z,12.24
2018-05-17T07:28:18.877Z,12.29
2018-05-17T07:29:25.783Z,12.32
2018-05-17T07:30:35.605Z,12.39
2018-05-17T07:31:43.814Z,12.36
2018-05-17T07:32:50.180Z,12.29
2018-05-17T07:33:56.455Z,12.28
2018-05-17T07:35:02.801Z,12.25
2018-05-17T07:36:09.069Z,12.15
2018-05-17T07:37:16.114Z,12.12
2018-05-17T07:38:23.706Z,12.20
2018-05-17T07:39:30.060Z,12.18
2018-05-17T07:40:36.388Z,12.20
2018-05-17T07:41:42.721Z,12.26
2018-05-17T07:42:49.008Z,12.20
2018-05-17T07:43:55.907Z,12.22
2018-05-17T07:45:02.118Z,12.13
2018-05-17T07:46:08.067Z,12.10
2018-05-17T07:47:14.342Z,12.12
2018-05-17T07:48:20.776Z,12.07
2018-05-17T07:49:27.974Z,12.12
2018-05-17T07:50:34.198Z,12.19
2018-05-17T07:51:46.504Z,12.27
2018-05-17T07:52:53.521Z,12.24
2018-05-17T07:54:00.470Z,12.13
2018-05-17T07:55:06.697Z,12.13
2018-05-17T07:56:13.017Z,12.18
2018-05-17T07:57:19.357Z,12.20
2018-05-17T07:58:25.685Z,12.24
2018-05-17T07:59:35.457Z,12.26
2018-05-17T08:00:41.724Z,12.24
2018-05-17T08:01:48.131Z,12.28
2018-05-17T08:02:54.601Z,12.27
2018-05-17T08:04:02.103Z,12.33
2018-05-17T08:05:08.835Z,12.38
2018-05-17T08:06:14.909Z,12.32
2018-05-17T08:07:21.137Z,12.30
2018-05-17T08:08:28.150Z,12.30
2018-05-17T08:09:35.329Z,12.25
2018-05-17T08:10:41.616Z,12.36
2018-05-17T08:11:47.832Z,12.27
2018-05-17T08:12:54.044Z,12.38
2018-05-17T08:14:00.350Z,12.45
2018-05-17T08:15:06.674Z,12.51
2018-05-17T08:16:12.617Z,12.48
2018-05-17T08:17:18.903Z,12.49
2018-05-17T08:18:25.226Z,12.52
2018-05-17T08:19:31.442Z,12.62
2018-05-17T08:20:37.753Z,12.71
2018-05-17T08:21:44.015Z,12.68
2018-05-17T08:22:50.469Z,12.73
2018-05-17T08:23:56.701Z,12.68
2018-05-17T08:25:03.483Z,12.74
2018-05-17T08:26:09.996Z,12.68
2018-05-17T08:27:16.315Z,12.78
2018-05-17T08:28:22.642Z,12.85
2018-05-17T08:29:28.933Z,12.85
2018-05-17T08:30:35.286Z,12.79
2018-05-17T08:31:41.572Z,12.76
2018-05-17T08:32:47.886Z,12.85
2018-05-17T08:34:00.328Z,12.91
2018-05-17T08:35:06.588Z,12.95
2018-05-17T08:36:12.908Z,12.95
2018-05-17T08:37:19.363Z,12.98
2018-05-17T08:38:25.702Z,12.83
2018-05-17T08:39:31.983Z,12.84
2018-05-17T08:40:38.998Z,12.94
2018-05-17T08:41:45.338Z,12.95
2018-05-17T08:42:51.548Z,13.00
2018-05-17T08:43:57.870Z,13.04
2018-05-17T08:45:03.788Z,13.06
2018-05-17T08:46:10.174Z,13.10
2018-05-17T08:47:16.495Z,13.02
2018-05-17T08:48:22.804Z,13.07
2018-05-17T08:49:29.149Z,13.15
2018-05-17T08:50:35.863Z,13.08
2018-05-17T08:51:42.169Z,13.05
2018-05-17T08:52:48.758Z,13.08
2018-05-17T08:53:55.088Z,13.08
2018-05-17T08:55:01.565Z,13.19
2018-05-17T08:56:07.571Z,13.21
2018-05-17T08:57:14.521Z,13.26
2018-05-17T08:58:20.820Z,13.33
2018-05-17T08:59:27.157Z,13.33
2018-05-17T09:00:33.532Z,13.35
2018-05-17T09:01:39.894Z,13.35
2018-05-17T09:02:46.376Z,13.33
2018-05-17T09:03:52.739Z,13.30
2018-05-17T09:04:59.148Z,13.23
2018-05-17T09:06:05.187Z,13.24
2018-05-17T09:07:11.529Z,13.24
2018-05-17T09:08:17.835Z,13.25
2018-05-17T09:09:24.184Z,13.26
2018-05-17T09:10:30.145Z,13.23
2018-05-17T09:11:37.058Z,13.26
2018-05-17T09:12:43.495Z,13.25
2018-05-17T09:13:49.884Z,13.11
2018-05-17T09:14:56.347Z,13.13
2018-05-17T09:16:03.456Z,13.14
2018-05-17T09:17:10.827Z,13.20
2018-05-17T09:18:17.317Z,13.33
2018-05-17T09:19:23.628Z,13.37
2018-05-17T09:20:30.070Z,13.43
2018-05-17T09:21:36.647Z,13.55
2018-05-17T09:22:43.330Z,13.67
2018-05-17T09:23:49.601Z,13.71
2018-05-17T09:24:55.606Z,13.77
2018-05-17T09:26:01.926Z,13.87
2018-05-17T09:27:08.956Z,13.93
2018-05-17T09:28:15.266Z,13.96
2018-05-17T09:29:21.675Z,13.95
2018-05-17T09:30:27.964Z,14.01
2018-05-17T09:31:35.016Z,14.08
2018-05-17T09:32:42.004Z,14.04
2018-05-17T09:33:48.416Z,14.07
2018-05-17T09:34:54.805Z,13.95
2018-05-17T09:36:01.185Z,13.98
2018-05-17T09:37:07.480Z,13.99
2018-05-17T09:38:13.775Z,14.06
2018-05-17T09:39:20.125Z,14.23
2018-05-17T09:40:26.392Z,14.30
2018-05-17T09:41:32.725Z,14.21
2018-05-17T09:42:39.033Z,14.36
2018-05-17T09:43:45.333Z,14.45
2018-05-17T09:44:52.148Z,14.54
2018-05-17T09:45:58.614Z,14.53
2018-05-17T09:47:04.982Z,14.59
2018-05-17T09:48:11.509Z,14.59
2018-05-17T09:49:17.854Z,14.69
2018-05-17T09:50:24.154Z,14.66
2018-05-17T09:51:30.428Z,14.65
2018-05-17T09:52:36.779Z,14.74
2018-05-17T09:53:43.145Z,14.72
2018-05-17T09:54:49.501Z,14.68
2018-05-17T09:55:55.797Z,14.68
2018-05-17T09:57:02.140Z,14.65
2018-05-17T09:58:08.393Z,14.72
2018-05-17T09:59:14.924Z,14.66
2018-05-17T10:00:21.816Z,14.62
2018-05-17T10:01:28.912Z,14.47
2018-05-17T10:02:35.797Z,14.49
2018-05-17T10:03:42.051Z,14.48
2018-05-17T10:04:48.380Z,14.57
2018-05-17T10:05:54.767Z,14.60
2018-05-17T10:07:01.052Z,14.51
2018-05-17T10:08:07.361Z,14.50
2018-05-17T10:09:13.926Z,14.40
2018-05-17T10:10:20.330Z,14.40
2018-05-17T10:11:26.580Z,14.39
2018-05-17T10:12:32.834Z,14.36
2018-05-17T10:13:39.138Z,14.30
2018-05-17T10:14:45.521Z,14.43
2018-05-17T10:15:52.365Z,14.51
2018-05-17T10:16:58.579Z,14.58
2018-05-17T10:18:04.895Z,14.67
2018-05-17T10:19:12.077Z,14.63
2018-05-17T10:20:18.345Z,14.55
2018-05-17T10:21:24.657Z,14.63
2018-05-17T10:22:32.145Z,14.69
2018-05-17T10:23:38.528Z,14.63
2018-05-17T10:24:44.941Z,14.56
2018-05-17T10:25:51.178Z,14.60
2018-05-17T10:26:57.430Z,14.61
2018-05-17T10:28:03.733Z,14.56
2018-05-17T10:29:10.060Z,14.55
2018-05-17T10:30:16.389Z,14.62
2018-05-17T10:31:22.676Z,14.55
2018-05-17T10:32:28.997Z,14.64
2018-05-17T10:33:35.333Z,14.77
2018-05-17T10:34:41.763Z,14.89
2018-05-17T10:35:48.152Z,14.91
2018-05-17T10:36:54.438Z,14.91
2018-05-17T10:38:00.771Z,14.90
2018-05-17T10:39:08.596Z,14.87
2018-05-17T10:40:15.955Z,14.88
2018-05-17T10:41:22.972Z,14.97
2018-05-17T10:42:29.280Z,14.93
2018-05-17T10:43:35.581Z,15.08
2018-05-17T10:44:41.800Z,14.95
2018-05-17T10:45:48.247Z,15.01
2018-05-17T10:46:54.492Z,15.17
2018-05-17T10:48:01.518Z,15.29
2018-05-17T10:49:07.760Z,15.32
2018-05-17T10:50:14.091Z,15.38
2018-05-17T10:51:20.616Z,15.42
2018-05-17T10:52:26.905Z,15.38
2018-05-17T10:53:33.240Z,15.46
2018-05-17T10:54:40.400Z,15.43
2018-05-17T10:55:47.378Z,15.45
2018-05-17T10:56:53.789Z,15.39
2018-05-17T10:58:00.105Z,15.49
2018-05-17T10:59:06.433Z,15.50
2018-05-17T11:00:12.384Z,15.34
2018-05-17T11:01:18.810Z,15.50
2018-05-17T11:02:25.041Z,15.60
2018-05-17T11:03:31.391Z,15.69
2018-05-17T11:04:37.660Z,15.88
2018-05-17T11:05:43.998Z,15.88
2018-05-17T11:06:50.268Z,15.76
2018-05-17T11:07:56.539Z,15.87
2018-05-17T11:09:03.000Z,16.01
2018-05-17T11:10:09.618Z,15.85
2018-05-17T11:11:17.050Z,15.71
2018-05-17T11:12:23.415Z,15.83
2018-05-17T11:13:29.708Z,15.82
2018-05-17T11:14:36.332Z,15.90
2018-05-17T11:15:43.345Z,15.97
2018-05-17T11:16:49.662Z,16.18
2018-05-17T11:17:56.567Z,16.22
2018-05-17T11:19:02.827Z,16.29
2018-05-17T11:20:09.225Z,16.19
2018-05-17T11:21:15.551Z,16.01
2018-05-17T11:22:21.841Z,15.91
2018-05-17T11:23:28.170Z,15.80
2018-05-17T11:24:34.627Z,15.86
2018-05-17T11:25:40.887Z,15.76
2018-05-17T11:26:47.663Z,15.72
2018-05-17T11:27:54.008Z,15.71
2018-05-17T11:29:00.960Z,15.80
2018-05-17T11:30:07.320Z,15.82
2018-05-17T11:31:13.866Z,15.61
2018-05-17T11:32:20.164Z,15.70
2018-05-17T11:33:26.536Z,15.38
2018-05-17T11:34:33.552Z,15.45
2018-05-17T11:35:39.841Z,15.44
2018-05-17T11:36:46.140Z,15.48
2018-05-17T11:37:52.490Z,15.55
2018-05-17T11:38:58.757Z,15.55
2018-05-17T11:40:05.498Z,15.52
2018-05-17T11:41:12.683Z,15.65
2018-05-17T11:42:22.063Z,15.69
2018-05-17T11:43:34.527Z,15.78
2018-05-17T11:44:40.757Z,15.75
2018-05-17T11:45:47.077Z,15.86
2018-05-17T11:46:54.151Z,16.01
2018-05-17T11:48:00.429Z,15.92
2018-05-17T11:49:06.697Z,16.02
2018-05-17T11:50:12.954Z,16.09
2018-05-17T11:51:19.246Z,15.99
2018-05-17T11:52:25.553Z,15.94
2018-05-17T11:53:31.888Z,15.97
2018-05-17T11:54:38.170Z,16.08
2018-05-17T11:55:44.221Z,16.19
2018-05-17T11:56:50.509Z,16.32
2018-05-17T11:57:56.797Z,16.29
2018-05-17T11:59:03.120Z,16.35
2018-05-17T12:00:09.449Z,16.43
2018-05-17T12:01:15.773Z,16.44
2018-05-17T12:02:22.022Z,16.49
2018-05-17T12:03:29.366Z,16.38
2018-05-17T12:04:40.098Z,16.33
2018-05-17T12:05:46.441Z,16.40
2018-05-17T12:06:52.768Z,16.41
2018-05-17T12:07:59.029Z,16.31
2018-05-17T12:09:04.641Z,16.37
2018-05-17T12:10:11.016Z,16.33
2018-05-17T12:11:17.699Z,16.34
2018-05-17T12:12:23.978Z,16.29
2018-05-17T12:13:30.259Z,16.13
2018-05-17T12:14:36.511Z,16.22
2018-05-17T12:15:42.842Z,16.30
2018-05-17T12:16:49.163Z,16.33
2018-05-17T12:17:55.890Z,16.45
2018-05-17T12:19:02.885Z,16.25
2018-05-17T12:20:08.892Z,16.17
2018-05-17T12:21:15.183Z,16.18
2018-05-17T12:22:21.538Z,16.26
2018-05-17T12:23:27.831Z,16.16
2018-05-17T12:24:34.142Z,16.20
2018-05-17T12:25:40.408Z,16.28
2018-05-17T12:26:46.689Z,16.14
2018-05-17T12:27:52.945Z,16.20
2018-05-17T12:29:00.186Z,16.22
2018-05-17T12:30:05.850Z,16.17
2018-05-17T12:31:12.604Z,16.13
2018-05-17T12:32:18.958Z,16.08
2018-05-17T12:33:26.062Z,16.09
2018-05-17T12:34:33.233Z,16.02
2018-05-17T12:35:39.488Z,16.13
2018-05-17T12:36:46.090Z,16.24
2018-05-17T12:37:52.429Z,16.21
2018-05-17T12:38:58.774Z,16.15
2018-05-17T12:40:04.556Z,16.14
2018-05-17T12:41:11.345Z,16.13
2018-05-17T12:42:17.557Z,16.18
2018-05-17T12:43:23.878Z,16.26
2018-05-17T12:44:30.199Z,16.31
2018-05-17T12:45:37.233Z,16.29
2018-05-17T12:46:43.549Z,16.41
2018-05-17T12:47:50.056Z,16.50
2018-05-17T12:48:57.077Z,16.49
2018-05-17T12:50:04.796Z,16.49
2018-05-17T12:51:11.054Z,16.41
2018-05-17T12:52:17.361Z,16.58
2018-05-17T12:53:23.676Z,16.72
2018-05-17T12:54:29.956Z,16.73
2018-05-17T12:55:36.278Z,16.46
2018-05-17T12:56:42.633Z,16.48
2018-05-17T12:57:48.995Z,16.62
2018-05-17T12:58:55.418Z,16.50
2018-05-17T13:00:02.050Z,16.42
2018-05-17T13:01:07.997Z,16.44
2018-05-17T13:02:14.629Z,16.42
2018-05-17T13:03:20.418Z,16.50
2018-05-17T13:04:26.493Z,16.63
2018-05-17T13:05:35.098Z,16.78
2018-05-17T13:06:46.474Z,16.71
2018-05-17T13:07:52.758Z,16.76
2018-05-17T13:08:59.075Z,16.89
2018-05-17T13:10:05.594Z,16.92
2018-05-17T13:11:11.903Z,16.86
2018-05-17T13:12:18.264Z,16.74
2018-05-17T13:13:24.507Z,16.78
2018-05-17T13:14:30.756Z,16.92
2018-05-17T13:15:37.071Z,17.04
2018-05-17T13:16:43.588Z,17.17
2018-05-17T13:17:50.129Z,17.13
2018-05-17T13:18:56.529Z,17.04
2018-05-17T13:20:02.906Z,17.08
2018-05-17T13:21:09.988Z,17.12
2018-05-17T13:22:16.226Z,17.18
2018-05-17T13:23:22.491Z,17.13
2018-05-17T13:24:28.787Z,17.16
2018-05-17T13:25:35.069Z,17.25
2018-05-17T13:26:45.524Z,17.41
2018-05-17T13:27:52.393Z,17.54
2018-05-17T13:28:58.597Z,17.37
2018-05-17T13:30:04.183Z,17.21
2018-05-17T13:31:10.523Z,17.36
2018-05-17T13:32:17.504Z,17.27
2018-05-17T13:33:23.877Z,17.41
2018-05-17T13:34:30.237Z,17.39
2018-05-17T13:35:37.044Z,17.30
2018-05-17T13:36:43.621Z,17.35
2018-05-17T13:37:49.936Z,17.47
2018-05-17T13:38:56.266Z,17.42
2018-05-17T13:40:02.669Z,17.51
2018-05-17T13:41:09.076Z,17.46
2018-05-17T13:42:15.426Z,17.56
2018-05-17T13:43:21.692Z,17.63
2018-05-17T13:44:28.031Z,17.78
2018-05-17T13:45:34.454Z,17.86
2018-05-17T13:46:40.748Z,17.74
2018-05-17T13:47:47.142Z,17.69
2018-05-17T13:48:53.717Z,17.40
2018-05-17T13:49:59.693Z,17.55
2018-05-17T13:51:06.030Z,17.32
2018-05-17T13:52:12.317Z,17.37
2018-05-17T13:53:18.647Z,17.55
2018-05-17T13:54:24.934Z,17.64
2018-05-17T13:55:31.212Z,17.63
2018-05-17T13:56:37.929Z,17.68
2018-05-17T13:57:44.204Z,17.57
2018-05-17T13:58:50.500Z,17.47
2018-05-17T13:59:56.825Z,17.43
2018-05-17T14:01:03.251Z,17.56
2018-05-17T14:02:09.546Z,17.46
2018-05-17T14:03:15.953Z,17.54
2018-05-17T14:04:22.258Z,17.57
2018-05-17T14:05:28.608Z,17.53
2018-05-17T14:06:35.032Z,17.64
2018-05-17T14:07:41.429Z,17.67
2018-05-17T14:08:49.836Z,17.57
2018-05-17T14:09:56.059Z,17.52
2018-05-17T14:11:02.482Z,17.49
2018-05-17T14:12:09.700Z,17.60
2018-05-17T14:13:16.880Z,17.55
2018-05-17T14:14:23.244Z,17.74
2018-05-17T14:15:30.781Z,17.63
2018-05-17T14:16:37.341Z,17.70
2018-05-17T14:17:43.631Z,17.71
2018-05-17T14:18:49.955Z,17.66